Time;durP1;ratioP1;P1;durP2;ratioP2;P2;SDS_P1;SDS_P2;PMS_P1;PMS_P2;Temp;Humidity;BMP_temperature;BMP_pressure;BME280_temperature;BME280_humidity;BME280_pressure;Samples;Min_cycle;Max_cycle;Signal;HPM_P1;HPM_P2
2023/12/25 00:03:34;;;;;;;10.43;6.15;;;;;;;;;;10028392;28;20064;-74
2023/12/25 00:08:38;;;;;;;29.92;15.65;;;;;;;;;;10027652;28;20042;-73
2023/12/25 00:13:30;;;;;;;21.38;8.02;;;;;;;;;;10028578;28;20101;-74
2023/12/25 00:18:22;;;;;;;11.20;6.18;;;;;;;;;;10028356;28;20046;-73
2023/12/25 00:23:14;;;;;;;16.98;6.75;;;;;;;;;;10028842;28;20547;-74
2023/12/25 00:28:06;;;;;;;11.73;8.70;;;;;;;;;;10029593;28;20042;-74
2023/12/25 00:32:58;;;;;;;13.18;7.03;;;;;;;;;;10027399;28;20045;-74
2023/12/25 00:37:51;;;;;;;9.48;4.97;;;;;;;;;;9993012;28;20038;-74
2023/12/25 00:42:44;;;;;;;19.23;10.00;;;;;;;;;;9974439;28;20073;-73
2023/12/25 00:47:36;;;;;;;17.02;8.85;;;;;;;;;;9990450;28;20078;-73
2023/12/25 00:52:28;;;;;;;19.63;10.07;;;;;;;;;;10005280;28;20049;-74
2023/12/25 00:57:20;;;;;;;17.50;10.30;;;;;;;;;;9991035;28;20052;-74
2023/12/25 01:02:12;;;;;;;7.70;5.40;;;;;;;;;;9989452;28;20039;-74
2023/12/25 01:07:04;;;;;;;9.10;5.75;;;;;;;;;;10003060;28;20073;-74
2023/12/25 01:11:56;;;;;;;21.65;11.35;;;;;;;;;;10004914;28;20104;-74
2023/12/25 01:16:48;;;;;;;16.63;8.80;;;;;;;;;;9989782;28;20043;-74
2023/12/25 01:21:40;;;;;;;16.25;7.45;;;;;;;;;;9989185;28;20057;-74
2023/12/25 01:26:31;;;;;;;10.63;6.70;;;;;;;;;;10003938;28;20049;-74
2023/12/25 01:31:23;;;;;;;13.73;7.90;;;;;;;;;;9988177;28;20101;-74
2023/12/25 01:36:15;;;;;;;22.80;8.00;;;;;;;;;;9998270;28;20022;-74
2023/12/25 01:41:07;;;;;;;14.50;6.20;;;;;;;;;;9989211;28;20146;-74
2023/12/25 01:46:07;;;;;;;15.73;7.13;;;;;;;;;;9988874;28;20046;-74
2023/12/25 01:51:00;;;;;;;16.02;5.78;;;;;;;;;;9993419;28;20038;-74
2023/12/25 01:55:53;;;;;;;13.90;8.30;;;;;;;;;;9998539;28;20065;-74
2023/12/25 02:00:45;;;;;;;12.98;6.68;;;;;;;;;;9991098;28;20136;-73
2023/12/25 02:05:36;;;;;;;14.38;4.43;;;;;;;;;;9986304;28;20050;-74
2023/12/25 02:10:29;;;;;;;12.40;4.60;;;;;;;;;;10002840;28;20069;-73
2023/12/25 02:15:22;;;;;;;6.85;4.15;;;;;;;;;;10003712;28;20126;-74
2023/12/25 02:20:14;;;;;;;13.18;3.83;;;;;;;;;;9987904;28;20048;-74
2023/12/25 02:25:12;;;;;;;6.82;4.65;;;;;;;;;;10006524;28;20038;-74
2023/12/25 02:30:05;;;;;;;10.98;4.68;;;;;;;;;;9991772;28;20489;-74
2023/12/25 02:34:57;;;;;;;10.50;5.15;;;;;;;;;;9987356;28;20053;-74
2023/12/25 02:39:49;;;;;;;9.32;4.75;;;;;;;;;;10003248;28;20081;-74
2023/12/25 02:44:41;;;;;;;15.38;5.03;;;;;;;;;;9992033;28;20121;-73
2023/12/25 02:49:33;;;;;;;8.23;3.60;;;;;;;;;;10002615;28;20069;-73
2023/12/25 02:54:25;;;;;;;14.00;4.20;;;;;;;;;;10004344;28;20042;-74
2023/12/25 02:59:16;;;;;;;8.02;3.67;;;;;;;;;;9986361;28;20089;-73
2023/12/25 03:04:08;;;;;;;15.60;5.03;;;;;;;;;;9987700;28;20444;-74
2023/12/25 03:09:00;;;;;;;11.65;3.45;;;;;;;;;;9987513;28;20469;-74
2023/12/25 03:13:52;;;;;;;7.15;3.42;;;;;;;;;;10003466;28;20169;-74
2023/12/25 03:18:44;;;;;;;9.20;4.35;;;;;;;;;;9986607;28;20116;-73
2023/12/25 03:23:36;;;;;;;10.73;4.90;;;;;;;;;;9987162;28;20046;-73
2023/12/25 03:28:29;;;;;;;8.18;2.95;;;;;;;;;;9985833;28;20049;-73
2023/12/25 03:33:20;;;;;;;9.98;4.35;;;;;;;;;;9992736;28;20113;-73
2023/12/25 03:38:13;;;;;;;7.03;3.13;;;;;;;;;;10007199;28;20038;-73
2023/12/25 03:43:04;;;;;;;11.05;3.78;;;;;;;;;;10010207;28;20054;-74
2023/12/25 03:47:57;;;;;;;13.90;4.03;;;;;;;;;;9994596;28;20449;-74
2023/12/25 03:52:49;;;;;;;14.60;4.75;;;;;;;;;;9992848;28;20440;-74
2023/12/25 03:57:42;;;;;;;10.07;4.05;;;;;;;;;;10007968;28;20320;-73
2023/12/25 04:02:33;;;;;;;9.73;4.15;;;;;;;;;;10007117;28;20442;-74
2023/12/25 04:07:25;;;;;;;10.77;4.57;;;;;;;;;;9999066;28;20044;-74
2023/12/25 04:12:17;;;;;;;11.88;5.13;;;;;;;;;;9991816;28;20034;-74
2023/12/25 04:17:09;;;;;;;7.97;3.85;;;;;;;;;;10007531;28;20385;-74
2023/12/25 04:22:01;;;;;;;15.73;5.00;;;;;;;;;;9992054;28;20446;-73
2023/12/25 04:26:53;;;;;;;9.57;4.05;;;;;;;;;;10001044;28;20490;-73
2023/12/25 04:31:45;;;;;;;6.18;4.18;;;;;;;;;;9991592;28;20133;-73
2023/12/25 04:36:44;;;;;;;13.88;4.55;;;;;;;;;;9991986;28;20073;-74
2023/12/25 04:41:36;;;;;;;10.95;4.00;;;;;;;;;;9998517;28;20050;-74
2023/12/25 04:46:29;;;;;;;11.05;5.22;;;;;;;;;;10006239;28;20050;-73
2023/12/25 04:51:21;;;;;;;10.63;4.63;;;;;;;;;;9990303;28;20038;-73
2023/12/25 04:56:13;;;;;;;12.10;5.57;;;;;;;;;;10005982;28;20117;-74
2023/12/25 05:01:06;;;;;;;10.98;5.00;;;;;;;;;;10004917;28;20407;-74
2023/12/25 05:05:59;;;;;;;41.88;20.88;;;;;;;;;;10004482;28;20053;-73
2023/12/25 05:10:52;;;;;;;14.43;5.00;;;;;;;;;;9996624;28;20053;-73
2023/12/25 05:15:44;;;;;;;16.55;7.22;;;;;;;;;;10003776;28;20050;-73
2023/12/25 05:20:36;;;;;;;13.65;6.82;;;;;;;;;;9990828;28;20374;-74
2023/12/25 05:25:28;;;;;;;16.38;6.07;;;;;;;;;;9991910;28;20058;-73
2023/12/25 05:30:20;;;;;;;18.27;6.82;;;;;;;;;;9988900;28;20438;-74
2023/12/25 05:35:12;;;;;;;13.18;8.07;;;;;;;;;;9988767;28;20047;-74
2023/12/25 05:40:04;;;;;;;16.75;9.75;;;;;;;;;;9989321;28;20061;-72
2023/12/25 05:44:57;;;;;;;24.88;10.43;;;;;;;;;;9989733;28;20046;-72
2023/12/25 05:49:49;;;;;;;20.00;11.63;;;;;;;;;;9989539;28;20125;-72
2023/12/25 05:54:42;;;;;;;25.75;10.90;;;;;;;;;;9991244;28;20101;-72
2023/12/25 05:59:35;;;;;;;25.58;9.60;;;;;;;;;;9994091;28;20099;-72
2023/12/25 06:04:27;;;;;;;22.73;9.50;;;;;;;;;;9988704;28;20568;-73
2023/12/25 06:09:20;;;;;;;14.20;6.88;;;;;;;;;;10021871;28;20042;-72
2023/12/25 06:14:11;;;;;;;20.10;12.20;;;;;;;;;;10023631;28;20049;-72
2023/12/25 06:19:03;;;;;;;26.00;17.42;;;;;;;;;;10024142;28;20070;-73
2023/12/25 06:23:56;;;;;;;34.08;14.88;;;;;;;;;;10020008;28;20146;-72
2023/12/25 06:28:48;;;;;;;28.00;14.27;;;;;;;;;;10021774;28;20398;-73
2023/12/25 06:33:40;;;;;;;43.08;15.15;;;;;;;;;;10021044;28;20042;-72
2023/12/25 06:38:32;;;;;;;32.97;14.13;;;;;;;;;;10013819;28;20057;-73
2023/12/25 06:43:24;;;;;;;24.08;11.63;;;;;;;;;;10023090;28;20440;-72
2023/12/25 06:48:16;;;;;;;21.58;12.40;;;;;;;;;;10013294;28;20097;-73
2023/12/25 06:53:08;;;;;;;15.98;9.00;;;;;;;;;;10023847;28;20045;-73
2023/12/25 06:58:01;;;;;;;20.88;11.77;;;;;;;;;;10023352;28;20092;-72
2023/12/25 07:02:53;;;;;;;19.70;11.05;;;;;;;;;;10023981;28;20092;-73
2023/12/25 07:07:45;;;;;;;27.70;11.05;;;;;;;;;;10028939;28;20065;-73
2023/12/25 07:12:36;;;;;;;16.83;8.52;;;;;;;;;;10026172;28;20045;-73
2023/12/25 07:17:28;;;;;;;20.33;10.07;;;;;;;;;;10032057;28;20065;-73
2023/12/25 07:22:20;;;;;;;26.00;10.05;;;;;;;;;;10029527;28;20042;-75
2023/12/25 07:27:12;;;;;;;15.75;9.27;;;;;;;;;;10029904;28;20503;-72
2023/12/25 07:32:04;;;;;;;16.38;7.82;;;;;;;;;;10029240;28;20105;-72
2023/12/25 07:36:56;;;;;;;27.10;9.50;;;;;;;;;;10028219;28;20038;-73
2023/12/25 07:41:48;;;;;;;24.35;8.23;;;;;;;;;;10028148;28;20062;-73
2023/12/25 07:46:41;;;;;;;19.63;9.32;;;;;;;;;;10031488;28;20133;-73
2023/12/25 07:51:33;;;;;;;19.38;8.82;;;;;;;;;;10029011;28;20528;-73
2023/12/25 07:56:25;;;;;;;20.92;8.45;;;;;;;;;;10029769;28;20040;-73
2023/12/25 08:01:22;;;;;;;16.10;7.72;;;;;;;;;;10025159;28;20092;-74
2023/12/25 08:06:14;;;;;;;18.85;7.38;;;;;;;;;;10025502;28;20042;-73
2023/12/25 08:11:06;;;;;;;17.95;7.20;;;;;;;;;;10024172;28;20062;-74
2023/12/25 08:15:58;;;;;;;13.82;7.50;;;;;;;;;;10026889;28;20125;-74
2023/12/25 08:20:50;;;;;;;17.80;8.13;;;;;;;;;;10024027;28;20049;-74
2023/12/25 08:25:42;;;;;;;16.27;8.45;;;;;;;;;;10025054;28;20045;-73
2023/12/25 08:30:33;;;;;;;32.10;23.83;;;;;;;;;;10025032;28;20073;-73
2023/12/25 08:35:25;;;;;;;20.13;9.02;;;;;;;;;;10023581;28;20034;-73
2023/12/25 08:40:18;;;;;;;18.48;10.10;;;;;;;;;;10025281;28;20160;-73
2023/12/25 08:45:10;;;;;;;16.17;8.20;;;;;;;;;;10025322;28;20049;-73
2023/12/25 08:50:02;;;;;;;12.35;6.55;;;;;;;;;;10025051;28;20037;-73
2023/12/25 08:54:54;;;;;;;20.40;9.73;;;;;;;;;;10024000;28;20481;-73
2023/12/25 08:59:49;;;;;;;16.30;8.85;;;;;;;;;;10025140;28;20539;-73
2023/12/25 09:04:41;;;;;;;17.40;8.35;;;;;;;;;;10023804;28;20057;-73
2023/12/25 09:09:33;;;;;;;14.77;7.97;;;;;;;;;;10023642;28;20061;-73
2023/12/25 09:14:25;;;;;;;17.77;7.55;;;;;;;;;;10022924;28;20499;-73
2023/12/25 09:19:16;;;;;;;12.93;7.38;;;;;;;;;;10022878;28;20052;-73
2023/12/25 09:24:09;;;;;;;16.23;8.55;;;;;;;;;;10020603;28;20053;-73
2023/12/25 09:29:01;;;;;;;14.38;8.85;;;;;;;;;;10019131;28;20041;-73
2023/12/25 09:33:52;;;;;;;19.77;8.02;;;;;;;;;;10021724;28;20042;-73
2023/12/25 09:38:45;;;;;;;19.77;7.82;;;;;;;;;;10018555;28;20428;-73
2023/12/25 09:43:41;;;;;;;15.73;7.72;;;;;;;;;;10022272;28;20184;-73
2023/12/25 09:48:35;;;;;;;19.50;7.50;;;;;;;;;;10020867;28;20100;-73
2023/12/25 09:53:28;;;;;;;19.45;10.88;;;;;;;;;;10020092;28;20053;-73
2023/12/25 09:58:20;;;;;;;12.32;7.47;;;;;;;;;;10022216;28;20046;-73
2023/12/25 10:03:12;;;;;;;16.55;8.07;;;;;;;;;;10017203;28;20436;-73
2023/12/25 10:08:05;;;;;;;20.33;7.68;;;;;;;;;;10017679;28;20046;-73
2023/12/25 10:13:00;;;;;;;17.15;8.45;;;;;;;;;;10022099;28;20034;-73
2023/12/25 10:18:01;;;;;;;14.95;7.55;;;;;;;;;;10019455;28;20042;-73
2023/12/25 10:22:53;;;;;;;13.57;7.28;;;;;;;;;;10020361;28;20046;-73
2023/12/25 10:27:48;;;;;;;18.35;7.10;;;;;;;;;;10018987;28;20041;-73
2023/12/25 10:32:40;;;;;;;22.50;8.15;;;;;;;;;;10020721;28;20144;-74
2023/12/25 10:37:32;;;;;;;19.58;7.90;;;;;;;;;;10020677;28;20044;-73
2023/12/25 10:42:24;;;;;;;18.65;8.10;;;;;;;;;;10027185;28;20161;-73
2023/12/25 10:47:16;;;;;;;21.55;8.07;;;;;;;;;;10027477;28;20041;-73
2023/12/25 10:52:09;;;;;;;15.30;5.93;;;;;;;;;;10029882;28;20050;-73
2023/12/25 10:57:03;;;;;;;17.80;5.80;;;;;;;;;;10026501;28;20408;-73
2023/12/25 11:01:56;;;;;;;11.63;5.57;;;;;;;;;;10022060;28;21313;-73
2023/12/25 11:06:49;;;;;;;17.73;8.25;;;;;;;;;;10021578;28;20445;-73
2023/12/25 11:11:42;;;;;;;11.82;5.88;;;;;;;;;;10022758;28;20044;-73
2023/12/25 11:16:35;;;;;;;11.00;6.93;;;;;;;;;;10030408;28;20042;-73
2023/12/25 11:21:29;;;;;;;18.15;6.35;;;;;;;;;;10028565;28;20042;-73
2023/12/25 11:26:24;;;;;;;13.85;7.85;;;;;;;;;;10027961;28;20551;-73
2023/12/25 11:31:22;;;;;;;13.27;6.00;;;;;;;;;;10022259;28;20057;-73
2023/12/25 11:36:16;;;;;;;12.20;6.67;;;;;;;;;;10026375;28;20854;-73
2023/12/25 11:41:11;;;;;;;21.65;6.45;;;;;;;;;;10027443;28;20057;-76
2023/12/25 11:46:03;;;;;;;14.45;6.30;;;;;;;;;;10026247;28;20445;-73
2023/12/25 11:50:59;;;;;;;13.10;6.22;;;;;;;;;;10027428;28;20069;-73
2023/12/25 11:55:52;;;;;;;19.67;7.25;;;;;;;;;;10027273;28;20042;-74
2023/12/25 12:00:44;;;;;;;28.05;7.25;;;;;;;;;;10028013;28;20034;-76
2023/12/25 12:05:36;;;;;;;15.32;6.85;;;;;;;;;;10015576;28;20055;-77
2023/12/25 12:10:28;;;;;;;16.35;6.43;;;;;;;;;;10016533;28;20038;-76
2023/12/25 12:15:20;;;;;;;17.35;6.70;;;;;;;;;;10013430;28;20406;-76
2023/12/25 12:20:11;;;;;;;21.10;7.45;;;;;;;;;;10029442;28;20038;-76
2023/12/25 12:25:20;;;;;;;11.35;7.00;;;;;;;;;;10014370;28;20049;-75
2023/12/25 12:30:12;;;;;;;24.38;8.07;;;;;;;;;;10014552;28;20050;-77
2023/12/25 12:35:05;;;;;;;18.52;6.50;;;;;;;;;;10014513;28;20078;-77
2023/12/25 12:40:05;;;;;;;10.73;6.70;;;;;;;;;;10020675;28;20370;-77
2023/12/25 12:44:57;;;;;;;18.42;6.72;;;;;;;;;;10017320;28;20054;-78
2023/12/25 12:49:50;;;;;;;13.30;7.72;;;;;;;;;;10019097;28;20056;-77
2023/12/25 12:54:42;;;;;;;15.25;6.55;;;;;;;;;;10020430;28;20068;-77
2023/12/25 12:59:34;;;;;;;11.85;6.05;;;;;;;;;;10014732;28;20042;-77
2023/12/25 13:04:25;;;;;;;14.68;5.88;;;;;;;;;;10015937;28;20049;-78
2023/12/25 13:09:17;;;;;;;22.88;6.15;;;;;;;;;;10013787;28;20145;-78
2023/12/25 13:14:09;;;;;;;15.00;6.60;;;;;;;;;;10016452;28;20042;-78
2023/12/25 13:19:01;;;;;;;18.95;7.13;;;;;;;;;;10015504;28;20050;-78
2023/12/25 13:23:53;;;;;;;24.92;11.05;;;;;;;;;;10014066;28;20137;-78
2023/12/25 13:28:45;;;;;;;15.70;7.00;;;;;;;;;;10015204;28;20048;-78
2023/12/25 13:33:42;;;;;;;13.15;7.78;;;;;;;;;;10015906;28;20073;-78
2023/12/25 13:38:35;;;;;;;13.27;6.20;;;;;;;;;;10015118;28;20108;-78
2023/12/25 13:43:26;;;;;;;21.95;7.45;;;;;;;;;;10016026;28;20057;-78
2023/12/25 13:48:18;;;;;;;15.45;6.70;;;;;;;;;;10015450;28;20038;-78
2023/12/25 13:53:10;;;;;;;13.77;6.43;;;;;;;;;;10013002;28;20424;-78
2023/12/25 13:58:02;;;;;;;15.05;9.40;;;;;;;;;;10014079;28;20533;-78
2023/12/25 14:02:55;;;;;;;16.05;8.02;;;;;;;;;;10016240;28;20132;-78
2023/12/25 14:07:47;;;;;;;18.80;9.13;;;;;;;;;;10014972;28;20053;-79
2023/12/25 14:12:39;;;;;;;19.05;9.57;;;;;;;;;;10009791;28;20402;-78
2023/12/25 14:17:33;;;;;;;18.73;7.75;;;;;;;;;;10013575;28;20385;-78
2023/12/25 14:22:25;;;;;;;21.80;10.13;;;;;;;;;;10014341;28;20038;-78
2023/12/25 14:27:18;;;;;;;16.77;7.68;;;;;;;;;;10016018;28;20328;-78
2023/12/25 14:32:09;;;;;;;21.20;6.68;;;;;;;;;;10014886;28;20401;-78
2023/12/25 14:37:02;;;;;;;20.05;10.68;;;;;;;;;;10015689;28;20081;-79
2023/12/25 14:41:54;;;;;;;21.52;8.73;;;;;;;;;;10009891;28;20049;-79
2023/12/25 14:46:47;;;;;;;28.58;14.65;;;;;;;;;;10011605;28;20074;-78
2023/12/25 14:51:41;;;;;;;16.73;10.05;;;;;;;;;;10013669;28;20050;-79
2023/12/25 14:56:33;;;;;;;18.15;10.82;;;;;;;;;;10013476;28;20112;-78
2023/12/25 15:01:25;;;;;;;127.55;103.85;;;;;;;;;;10010905;28;20042;-78
2023/12/25 15:06:17;;;;;;;172.27;122.30;;;;;;;;;;10014201;28;20481;-79
2023/12/25 15:11:09;;;;;;;48.53;39.08;;;;;;;;;;10011157;28;20074;-78
2023/12/25 15:16:01;;;;;;;44.42;31.13;;;;;;;;;;10012623;28;20046;-79
2023/12/25 15:20:53;;;;;;;47.90;35.15;;;;;;;;;;10013191;28;20101;-79
2023/12/25 15:25:45;;;;;;;49.83;35.33;;;;;;;;;;10014641;28;20052;-79
2023/12/25 15:30:38;;;;;;;25.58;16.05;;;;;;;;;;10021533;28;20050;-78
2023/12/25 15:35:29;;;;;;;30.77;21.20;;;;;;;;;;10019737;28;20058;-79
2023/12/25 15:40:22;;;;;;;20.40;14.23;;;;;;;;;;10020265;28;20046;-78
2023/12/25 15:45:13;;;;;;;41.25;31.00;;;;;;;;;;10017878;28;20456;-79
2023/12/25 15:50:09;;;;;;;45.67;28.20;;;;;;;;;;10018058;28;20123;-79
2023/12/25 15:55:01;;;;;;;21.33;14.55;;;;;;;;;;10017633;28;20038;-79
2023/12/25 15:59:55;;;;;;;21.27;10.55;;;;;;;;;;10018955;28;20072;-78
2023/12/25 16:04:47;;;;;;;45.72;25.13;;;;;;;;;;10016155;28;20386;-78
2023/12/25 16:09:41;;;;;;;13.95;11.40;;;;;;;;;;10020235;28;20038;-79
2023/12/25 16:14:33;;;;;;;77.32;60.60;;;;;;;;;;10017197;28;20509;-77
2023/12/25 16:19:25;;;;;;;30.15;18.85;;;;;;;;;;10018560;28;20053;-79
2023/12/25 16:24:18;;;;;;;14.23;9.35;;;;;;;;;;10016454;28;20046;-79
2023/12/25 16:29:11;;;;;;;20.85;9.88;;;;;;;;;;10017330;28;20084;-79
2023/12/25 16:34:03;;;;;;;39.22;22.08;;;;;;;;;;10018513;28;20046;-79
2023/12/25 16:38:55;;;;;;;26.13;14.27;;;;;;;;;;10015201;28;20060;-78
2023/12/25 16:43:47;;;;;;;22.20;13.82;;;;;;;;;;10017901;28;20375;-78
2023/12/25 16:48:39;;;;;;;30.20;16.25;;;;;;;;;;10019266;28;20453;-78
2023/12/25 16:53:31;;;;;;;39.95;25.58;;;;;;;;;;10014844;28;20045;-78
2023/12/25 16:58:23;;;;;;;27.67;13.07;;;;;;;;;;10015875;28;20069;-79
2023/12/25 17:03:15;;;;;;;25.05;14.63;;;;;;;;;;10024504;28;20053;-78
2023/12/25 17:08:07;;;;;;;44.38;29.60;;;;;;;;;;10023772;28;20042;-78
2023/12/25 17:12:58;;;;;;;62.60;37.13;;;;;;;;;;10022939;28;20128;-78
2023/12/25 17:17:51;;;;;;;31.70;15.95;;;;;;;;;;10019130;28;20081;-79
2023/12/25 17:22:44;;;;;;;22.77;13.80;;;;;;;;;;10019663;28;20050;-78
2023/12/25 17:27:38;;;;;;;21.25;11.85;;;;;;;;;;10019584;28;20049;-78
2023/12/25 17:32:30;;;;;;;22.08;10.57;;;;;;;;;;10018100;28;20038;-78
2023/12/25 17:37:22;;;;;;;19.33;11.02;;;;;;;;;;10020243;28;20106;-79
2023/12/25 17:42:14;;;;;;;24.58;12.65;;;;;;;;;;10021380;28;20049;-78
2023/12/25 17:47:06;;;;;;;22.20;12.48;;;;;;;;;;10023245;28;20038;-78
2023/12/25 17:51:58;;;;;;;30.77;14.05;;;;;;;;;;10020868;28;20116;-78
2023/12/25 17:56:50;;;;;;;24.92;11.02;;;;;;;;;;10023088;28;20077;-78
2023/12/25 18:01:41;;;;;;;16.98;10.32;;;;;;;;;;10022227;28;20064;-78
2023/12/25 18:06:33;;;;;;;25.27;10.98;;;;;;;;;;10020558;28;20383;-78
2023/12/25 18:11:26;;;;;;;22.17;11.07;;;;;;;;;;10018674;28;20400;-78
2023/12/25 18:16:18;;;;;;;17.33;10.80;;;;;;;;;;10020275;28;20553;-78
2023/12/25 18:21:11;;;;;;;27.73;12.02;;;;;;;;;;10021796;28;20438;-79
2023/12/25 18:26:03;;;;;;;22.27;13.75;;;;;;;;;;10022071;28;20050;-77
2023/12/25 18:30:55;;;;;;;20.08;11.57;;;;;;;;;;10021207;28;20069;-77
2023/12/25 18:35:47;;;;;;;22.83;14.23;;;;;;;;;;10020642;28;20173;-78
2023/12/25 18:40:39;;;;;;;20.30;12.27;;;;;;;;;;10021621;28;20088;-77
2023/12/25 18:45:31;;;;;;;26.08;13.30;;;;;;;;;;10021820;28;20116;-77
2023/12/25 18:50:23;;;;;;;36.97;17.00;;;;;;;;;;10021392;28;20050;-78
2023/12/25 18:55:15;;;;;;;27.40;15.10;;;;;;;;;;10018322;28;20045;-78
2023/12/25 19:00:07;;;;;;;32.60;13.80;;;;;;;;;;10021616;28;20050;-77
2023/12/25 19:04:59;;;;;;;31.48;13.82;;;;;;;;;;10027639;28;20061;-78
2023/12/25 19:09:51;;;;;;;23.20;11.00;;;;;;;;;;10029544;28;20388;-75
2023/12/25 19:14:43;;;;;;;23.40;13.05;;;;;;;;;;10028469;28;20366;-75
2023/12/25 19:19:35;;;;;;;26.10;12.77;;;;;;;;;;10029786;28;20042;-75
2023/12/25 19:24:27;;;;;;;26.02;11.63;;;;;;;;;;10027712;28;20081;-75
2023/12/25 19:29:19;;;;;;;21.33;11.13;;;;;;;;;;10029287;28;20121;-76
2023/12/25 19:34:11;;;;;;;24.77;11.80;;;;;;;;;;10028880;28;20093;-75
2023/12/25 19:39:03;;;;;;;18.10;11.40;;;;;;;;;;10028657;28;20050;-75
2023/12/25 19:43:55;;;;;;;23.63;13.00;;;;;;;;;;10026787;28;20564;-75
2023/12/25 19:48:47;;;;;;;21.02;12.95;;;;;;;;;;10026458;28;20070;-75
2023/12/25 19:53:42;;;;;;;18.13;8.93;;;;;;;;;;10026966;28;20334;-73
2023/12/25 19:58:34;;;;;;;21.90;12.25;;;;;;;;;;10027106;28;20403;-75
2023/12/25 20:03:26;;;;;;;19.73;11.63;;;;;;;;;;10027326;28;20073;-75
2023/12/25 20:08:18;;;;;;;15.88;9.00;;;;;;;;;;10026103;28;20351;-76
2023/12/25 20:13:11;;;;;;;16.02;8.48;;;;;;;;;;10024304;28;20149;-74
2023/12/25 20:18:03;;;;;;;12.57;8.50;;;;;;;;;;10026212;28;20421;-75
2023/12/25 20:22:55;;;;;;;21.08;9.40;;;;;;;;;;10025165;28;20049;-75
2023/12/25 20:27:47;;;;;;;10.10;7.38;;;;;;;;;;10026330;28;20054;-74
2023/12/25 20:32:39;;;;;;;21.75;8.43;;;;;;;;;;10027892;28;20053;-74
2023/12/25 20:37:31;;;;;;;15.52;7.75;;;;;;;;;;10024950;28;20046;-74
2023/12/25 20:42:23;;;;;;;14.93;9.18;;;;;;;;;;10025313;28;20092;-74
2023/12/25 20:47:15;;;;;;;15.90;9.38;;;;;;;;;;10025435;28;20100;-74
2023/12/25 20:52:07;;;;;;;25.05;8.18;;;;;;;;;;10026106;28;20054;-73
2023/12/25 20:57:01;;;;;;;19.70;8.50;;;;;;;;;;10025614;28;20096;-74
2023/12/25 21:01:53;;;;;;;18.98;9.07;;;;;;;;;;10025495;28;20049;-73
2023/12/25 21:06:45;;;;;;;13.77;9.35;;;;;;;;;;10025626;28;20108;-73
2023/12/25 21:11:37;;;;;;;16.88;9.77;;;;;;;;;;10025083;28;20046;-74
2023/12/25 21:16:30;;;;;;;21.48;9.60;;;;;;;;;;10025138;28;20041;-74
2023/12/25 21:21:22;;;;;;;16.50;9.60;;;;;;;;;;10023222;28;20045;-74
2023/12/25 21:26:14;;;;;;;18.15;12.07;;;;;;;;;;10021983;28;20037;-74
2023/12/25 21:31:06;;;;;;;24.60;12.02;;;;;;;;;;10024749;28;20049;-74
2023/12/25 21:35:58;;;;;;;18.35;11.15;;;;;;;;;;10021937;28;20045;-74
2023/12/25 21:40:51;;;;;;;17.85;10.07;;;;;;;;;;10024304;28;20443;-74
2023/12/25 21:45:44;;;;;;;22.45;13.20;;;;;;;;;;10023583;28;20052;-74
2023/12/25 21:50:36;;;;;;;26.50;11.90;;;;;;;;;;10021643;28;20042;-73
2023/12/25 21:55:28;;;;;;;17.35;11.57;;;;;;;;;;10023547;28;20046;-74
2023/12/25 22:00:23;;;;;;;21.70;13.18;;;;;;;;;;10023749;28;20041;-74
2023/12/25 22:05:17;;;;;;;21.08;10.82;;;;;;;;;;10023022;28;20046;-73
2023/12/25 22:10:09;;;;;;;24.42;10.85;;;;;;;;;;10023312;28;20037;-74
2023/12/25 22:15:01;;;;;;;25.42;11.15;;;;;;;;;;10022734;28;20426;-74
2023/12/25 22:19:53;;;;;;;19.77;11.27;;;;;;;;;;10021516;28;20133;-74
2023/12/25 22:24:49;;;;;;;20.38;10.88;;;;;;;;;;10022581;28;20124;-74
2023/12/25 22:29:41;;;;;;;24.00;12.25;;;;;;;;;;10023292;28;20049;-75
2023/12/25 22:34:32;;;;;;;16.15;9.93;;;;;;;;;;10022938;28;20042;-74
2023/12/25 22:39:25;;;;;;;14.45;9.18;;;;;;;;;;10030143;28;20491;-75
2023/12/25 22:44:17;;;;;;;12.93;8.70;;;;;;;;;;10030816;28;20042;-75
2023/12/25 22:49:09;;;;;;;16.73;8.82;;;;;;;;;;10031852;28;20037;-74
2023/12/25 22:54:02;;;;;;;14.20;10.13;;;;;;;;;;10032066;28;20428;-75
2023/12/25 22:58:54;;;;;;;14.95;8.77;;;;;;;;;;10032516;28;20042;-74
2023/12/25 23:03:46;;;;;;;27.83;10.68;;;;;;;;;;10031962;28;20381;-74
2023/12/25 23:08:38;;;;;;;25.17;11.63;;;;;;;;;;10031980;28;20050;-75
2023/12/25 23:13:30;;;;;;;16.35;11.50;;;;;;;;;;10031371;28;20038;-74
2023/12/25 23:18:22;;;;;;;15.13;9.85;;;;;;;;;;10031072;28;20042;-74
2023/12/25 23:23:14;;;;;;;28.90;14.32;;;;;;;;;;10031476;28;20161;-74
2023/12/25 23:28:06;;;;;;;17.08;11.15;;;;;;;;;;10031868;28;20465;-75
2023/12/25 23:32:58;;;;;;;18.77;10.38;;;;;;;;;;10031049;28;20053;-75
2023/12/25 23:37:50;;;;;;;22.73;12.15;;;;;;;;;;10031214;28;20042;-74
2023/12/25 23:42:43;;;;;;;20.98;11.18;;;;;;;;;;10030193;28;20381;-74
2023/12/25 23:47:35;;;;;;;18.88;10.63;;;;;;;;;;10038734;28;20076;-74
2023/12/25 23:52:28;;;;;;;14.82;10.80;;;;;;;;;;10030348;28;20053;-74
2023/12/25 23:57:20;;;;;;;17.75;10.38;;;;;;;;;;10029852;28;20050;-74
